Time;durP1;ratioP1;P1;durP2;ratioP2;P2;SDS_P1;SDS_P2;PMS_P1;PMS_P2;Temp;Humidity;BMP_temperature;BMP_pressure;BME280_temperature;BME280_humidity;BME280_pressure;Samples;Min_cycle;Max_cycle;Signal;HPM_P1;HPM_P2
2021/05/31 00:01:53;;;;;;;5.70;3.37;;;12.60;99.90;;;;;;4366028;32;20179;-73
2021/05/31 00:04:20;;;;;;;7.97;3.45;;;12.50;99.90;;;;;;4345646;32;20090;-72
2021/05/31 00:07:03;;;;;;;9.23;3.70;;;12.50;99.90;;;;;;4376037;32;20163;-72
2021/05/31 00:09:30;;;;;;;5.43;3.42;;;12.50;99.90;;;;;;4383212;32;20078;-71
2021/05/31 00:11:56;;;;;;;9.27;3.28;;;12.60;99.90;;;;;;4342016;32;20074;-73
2021/05/31 00:14:22;;;;;;;7.25;3.05;;;12.60;99.90;;;;;;4347609;32;20073;-73
2021/05/31 00:16:49;;;;;;;9.35;3.22;;;12.70;99.90;;;;;;4324079;32;20070;-72
2021/05/31 00:19:16;;;;;;;7.12;3.67;;;12.70;99.90;;;;;;4373153;32;20459;-72
2021/05/31 00:21:43;;;;;;;6.43;3.33;;;12.60;99.90;;;;;;4360485;32;20078;-73
2021/05/31 00:24:09;;;;;;;8.88;3.05;;;12.70;99.90;;;;;;4365791;32;20444;-72
2021/05/31 00:26:35;;;;;;;6.07;2.95;;;12.70;99.90;;;;;;4359824;32;20059;-72
2021/05/31 00:29:01;;;;;;;7.28;2.87;;;12.90;99.90;;;;;;4348532;32;20166;-72
2021/05/31 00:31:27;;;;;;;5.57;3.05;;;13.00;99.90;;;;;;4369492;32;20178;-73
2021/05/31 00:33:54;;;;;;;5.72;2.85;;;12.60;99.90;;;;;;4380909;32;20088;-73
2021/05/31 00:36:20;;;;;;;5.93;3.25;;;12.60;99.90;;;;;;4382744;32;20441;-72
2021/05/31 00:38:46;;;;;;;7.62;3.72;;;12.50;99.90;;;;;;4366384;32;20122;-72
2021/05/31 00:41:12;;;;;;;9.65;3.15;;;12.60;99.90;;;;;;4351041;32;20519;-71
2021/05/31 00:43:38;;;;;;;6.70;3.08;;;12.60;99.90;;;;;;4368261;32;20540;-73
2021/05/31 00:46:06;;;;;;;7.25;3.22;;;12.60;99.90;;;;;;4324987;32;20086;-73
2021/05/31 00:48:33;;;;;;;6.00;3.20;;;12.60;99.90;;;;;;4346251;32;20163;-72
2021/05/31 00:51:01;;;;;;;5.10;2.85;;;12.70;99.90;;;;;;4351608;32;20102;-72
2021/05/31 00:53:28;;;;;;;6.45;3.45;;;12.70;99.90;;;;;;4351932;32;20201;-73
2021/05/31 00:55:54;;;;;;;8.50;3.47;;;12.70;99.90;;;;;;4344294;32;20067;-73
2021/05/31 00:58:29;;;;;;;9.70;3.95;;;12.80;99.90;;;;;;3816417;37;20059;-73
2021/05/31 01:00:56;;;;;;;6.72;3.35;;;12.80;99.90;;;;;;4374485;32;20100;-72
2021/05/31 01:03:23;;;;;;;10.77;3.33;;;12.70;99.90;;;;;;4377701;32;20075;-73
2021/05/31 01:05:50;;;;;;;6.35;3.17;;;12.70;99.90;;;;;;4365048;32;20500;-72
2021/05/31 01:08:27;;;;;;;5.78;3.45;;;12.70;99.90;;;;;;4374969;32;20085;-73
2021/05/31 01:11:19;;;;;;;5.32;3.22;;;12.70;99.90;;;;;;4362195;32;20166;-73
2021/05/31 01:14:23;;;;;;;7.12;3.40;;;12.70;99.90;;;;;;4377423;32;20069;-72
2021/05/31 01:17:02;;;;;;;8.05;3.20;;;12.70;99.90;;;;;;4388966;32;20086;-73
2021/05/31 01:19:37;;;;;;;8.38;3.80;;;12.70;99.90;;;;;;4356537;32;20109;-73
2021/05/31 01:22:09;;;;;;;6.95;3.62;;;12.90;99.90;;;;;;4395108;32;20460;-73
2021/05/31 01:24:50;;;;;;;7.00;3.47;;;12.70;99.90;;;;;;4361962;32;20576;-72
2021/05/31 01:27:23;;;;;;;6.37;3.20;;;12.70;99.90;;;;;;4388219;32;20071;-72
2021/05/31 01:30:08;;;;;;;8.23;3.62;;;12.80;99.90;;;;;;4379707;32;20128;-72
2021/05/31 01:32:41;;;;;;;8.60;3.95;;;12.70;99.90;;;;;;4375426;32;20078;-73
2021/05/31 01:35:11;;;;;;;6.78;3.60;;;12.80;99.90;;;;;;4353436;32;20161;-72
2021/05/31 01:37:38;;;;;;;6.22;3.40;;;12.80;99.90;;;;;;4343523;32;20088;-72
2021/05/31 01:40:07;;;;;;;5.68;3.30;;;12.80;99.90;;;;;;4346484;32;20460;-72
2021/05/31 01:42:33;;;;;;;8.52;3.37;;;12.80;99.90;;;;;;4357073;32;20108;-72
2021/05/31 01:45:00;;;;;;;5.97;3.05;;;12.80;99.90;;;;;;4346582;32;20101;-73
2021/05/31 01:47:26;;;;;;;6.87;3.62;;;12.80;99.90;;;;;;4382121;32;20193;-72
2021/05/31 01:49:54;;;;;;;7.03;3.35;;;12.90;99.90;;;;;;4340546;32;20070;-72
2021/05/31 01:52:23;;;;;;;7.37;3.37;;;12.80;99.90;;;;;;4358037;32;20165;-72
2021/05/31 01:54:53;;;;;;;6.62;3.45;;;12.80;99.90;;;;;;4348973;32;20062;-73
2021/05/31 01:57:21;;;;;;;5.87;3.12;;;12.80;99.90;;;;;;4347457;32;20058;-74
2021/05/31 01:59:47;;;;;;;7.78;3.22;;;12.90;99.90;;;;;;4341695;32;20098;-73
2021/05/31 02:02:14;;;;;;;7.25;3.15;;;12.90;99.90;;;;;;4367309;32;20065;-72
2021/05/31 02:04:41;;;;;;;7.47;3.62;;;13.00;99.90;;;;;;4349806;32;20070;-73
2021/05/31 02:07:07;;;;;;;6.68;3.30;;;13.00;99.90;;;;;;4350615;32;20058;-72
2021/05/31 02:09:33;;;;;;;6.70;3.15;;;12.90;99.90;;;;;;4349432;32;20513;-73
2021/05/31 02:12:13;;;;;;;6.03;3.17;;;12.90;99.90;;;;;;4343391;32;20106;-72
2021/05/31 02:15:04;;;;;;;9.68;4.15;;;12.90;99.90;;;;;;4338104;32;20097;-71
2021/05/31 02:17:54;;;;;;;5.03;3.12;;;12.80;99.90;;;;;;4363113;32;20585;-71
2021/05/31 02:20:20;;;;;;;8.77;3.78;;;12.70;99.90;;;;;;4366486;32;20086;-72
2021/05/31 02:22:49;;;;;;;8.80;3.97;;;12.60;99.90;;;;;;4338965;32;20090;-72
2021/05/31 02:25:16;;;;;;;6.37;3.60;;;12.50;99.90;;;;;;4337250;32;20519;-72
2021/05/31 02:27:43;;;;;;;9.55;4.15;;;12.60;99.90;;;;;;4330241;32;20457;-72
2021/05/31 02:30:10;;;;;;;8.27;3.67;;;12.50;99.90;;;;;;4364067;32;20177;-70
2021/05/31 02:32:37;;;;;;;8.70;3.62;;;12.60;99.90;;;;;;4339874;32;20149;-71
2021/05/31 02:35:12;;;;;;;5.30;3.45;;;12.50;99.90;;;;;;4348665;32;20519;-73
2021/05/31 02:37:42;;;;;;;9.00;3.75;;;12.50;99.90;;;;;;4341356;32;20503;-73
2021/05/31 02:40:08;;;;;;;7.78;3.50;;;12.60;99.90;;;;;;4349329;32;20125;-73
2021/05/31 02:43:03;;;;;;;10.02;3.92;;;12.50;99.90;;;;;;4338412;32;20090;-73
2021/05/31 02:45:30;;;;;;;8.15;3.80;;;12.60;99.90;;;;;;4340312;32;20105;-73
2021/05/31 02:47:57;;;;;;;7.50;3.70;;;12.70;99.90;;;;;;4336464;32;20113;-73
2021/05/31 02:50:23;;;;;;;9.18;3.65;;;12.70;99.90;;;;;;4333102;32;20162;-73
2021/05/31 02:52:50;;;;;;;8.20;3.70;;;12.70;99.90;;;;;;4363830;32;20504;-73
2021/05/31 02:55:19;;;;;;;10.18;3.95;;;12.70;99.90;;;;;;4347652;32;20599;-72
2021/05/31 02:57:45;;;;;;;8.40;3.58;;;12.70;99.90;;;;;;4349807;32;20073;-74
2021/05/31 03:00:14;;;;;;;7.68;4.32;;;12.80;99.90;;;;;;4331415;32;20075;-71
2021/05/31 03:02:40;;;;;;;6.45;3.22;;;12.70;99.90;;;;;;4348715;32;20095;-70
2021/05/31 03:05:09;;;;;;;7.50;4.10;;;12.80;99.90;;;;;;4349005;32;20078;-71
2021/05/31 03:07:35;;;;;;;11.45;3.50;;;12.70;99.90;;;;;;4349184;32;20074;-73
2021/05/31 03:10:01;;;;;;;8.02;3.53;;;12.80;99.90;;;;;;4349793;32;20073;-72
2021/05/31 03:12:27;;;;;;;7.28;3.80;;;12.80;99.90;;;;;;4343541;32;20063;-72
2021/05/31 03:14:53;;;;;;;12.15;4.68;;;12.80;99.90;;;;;;4347160;32;20165;-72
2021/05/31 03:17:20;;;;;;;7.55;3.90;;;12.70;99.90;;;;;;4358871;32;20074;-73
2021/05/31 03:19:47;;;;;;;7.00;3.92;;;12.80;99.90;;;;;;4331921;32;20097;-71
2021/05/31 03:22:13;;;;;;;7.95;4.12;;;12.80;99.90;;;;;;4343456;32;20073;-71
2021/05/31 03:24:40;;;;;;;6.93;4.00;;;12.80;99.90;;;;;;4348271;32;20157;-72
2021/05/31 03:27:06;;;;;;;7.80;4.20;;;12.80;99.90;;;;;;4335912;32;20465;-71
2021/05/31 03:29:32;;;;;;;9.43;4.37;;;12.80;99.90;;;;;;4338983;32;20156;-72
2021/05/31 03:31:59;;;;;;;8.00;4.70;;;12.80;99.90;;;;;;4356222;32;20094;-72
2021/05/31 03:34:25;;;;;;;9.85;3.80;;;12.80;99.90;;;;;;4352542;32;20501;-73
2021/05/31 03:36:51;;;;;;;5.22;3.95;;;12.90;99.90;;;;;;4352875;32;20075;-72
2021/05/31 03:39:17;;;;;;;6.82;4.82;;;12.80;99.90;;;;;;4336434;32;20058;-72
2021/05/31 03:41:43;;;;;;;7.70;4.95;;;12.70;99.90;;;;;;4339991;32;20073;-73
2021/05/31 03:44:10;;;;;;;7.35;4.00;;;12.70;99.90;;;;;;4341831;32;20493;-71
2021/05/31 03:46:36;;;;;;;5.65;4.00;;;12.60;99.90;;;;;;4335533;32;20464;-73
2021/05/31 03:49:02;;;;;;;8.98;4.30;;;12.60;99.90;;;;;;4360177;32;20081;-73
2021/05/31 03:51:29;;;;;;;7.68;4.25;;;12.60;99.90;;;;;;4323733;32;20152;-74
2021/05/31 03:53:55;;;;;;;5.68;3.87;;;12.80;99.90;;;;;;4356019;32;20204;-73
2021/05/31 03:56:21;;;;;;;10.07;4.55;;;12.80;99.90;;;;;;4353369;32;20078;-72
2021/05/31 03:58:48;;;;;;;7.70;4.95;;;12.80;99.90;;;;;;4339103;32;20058;-71
2021/05/31 04:01:15;;;;;;;6.25;4.40;;;12.70;99.90;;;;;;4351626;32;20065;-74
2021/05/31 04:03:42;;;;;;;6.82;4.47;;;12.80;99.90;;;;;;4344500;32;20066;-72
2021/05/31 04:11:35;;;;;;;6.62;5.20;;;12.80;99.90;;;;;;4349707;32;20083;-73
2021/05/31 04:14:12;;;;;;;7.75;4.55;;;12.60;99.90;;;;;;4342042;32;20086;-73
2021/05/31 04:16:46;;;;;;;7.47;4.20;;;12.70;99.90;;;;;;4333366;32;20166;-72
2021/05/31 04:19:13;;;;;;;8.05;4.80;;;12.90;99.90;;;;;;4351300;32;20468;-72
2021/05/31 04:21:42;;;;;;;6.32;4.03;;;12.80;99.90;;;;;;4359123;32;20157;-71
2021/05/31 04:24:09;;;;;;;7.72;4.32;;;12.80;99.90;;;;;;4341450;32;20066;-73
2021/05/31 04:26:35;;;;;;;6.95;4.68;;;12.80;99.90;;;;;;4347095;32;20494;-73
2021/05/31 04:29:03;;;;;;;8.68;4.78;;;12.80;99.90;;;;;;4347685;32;20101;-71
2021/05/31 04:31:30;;;;;;;6.97;4.82;;;12.80;99.90;;;;;;4316864;32;20178;-73
2021/05/31 04:33:57;;;;;;;6.97;4.62;;;12.80;99.90;;;;;;4330241;32;20173;-73
2021/05/31 04:36:23;;;;;;;8.57;5.35;;;13.00;99.90;;;;;;4351974;32;20082;-73
2021/05/31 04:38:49;;;;;;;7.37;4.93;;;12.80;99.90;;;;;;4333302;32;20058;-72
2021/05/31 04:41:16;;;;;;;10.05;5.78;;;12.70;99.90;;;;;;4361161;32;20082;-73
2021/05/31 04:43:42;;;;;;;8.10;4.90;;;12.80;99.90;;;;;;4338491;32;20059;-71
2021/05/31 04:46:08;;;;;;;9.63;4.90;;;12.90;99.90;;;;;;4356602;32;20078;-72
2021/05/31 04:48:34;;;;;;;9.25;5.68;;;12.90;99.90;;;;;;4350159;32;20072;-71
2021/05/31 04:51:02;;;;;;;6.85;4.75;;;12.70;99.90;;;;;;4346232;32;20091;-73
2021/05/31 04:53:32;;;;;;;7.70;5.57;;;12.90;99.90;;;;;;4357514;32;20532;-72
2021/05/31 04:56:00;;;;;;;8.75;4.80;;;12.60;99.90;;;;;;4336231;32;20094;-72
2021/05/31 04:58:27;;;;;;;9.68;6.62;;;12.70;99.90;;;;;;4347511;32;20165;-73
2021/05/31 05:00:53;;;;;;;9.70;6.07;;;12.70;99.90;;;;;;4346234;32;20173;-72
2021/05/31 05:03:19;;;;;;;9.55;5.82;;;12.80;99.90;;;;;;4333725;32;20092;-71
2021/05/31 05:05:47;;;;;;;9.57;6.15;;;12.70;99.90;;;;;;4327388;32;20067;-73
2021/05/31 05:08:13;;;;;;;6.03;4.20;;;12.90;99.90;;;;;;4335890;32;20486;-73
2021/05/31 05:10:39;;;;;;;9.02;6.37;;;13.20;99.90;;;;;;4334755;32;20507;-72
2021/05/31 05:13:05;;;;;;;9.68;5.75;;;13.10;99.90;;;;;;4348542;32;20150;-72
2021/05/31 05:15:32;;;;;;;5.90;4.30;;;13.20;99.90;;;;;;4335011;32;20169;-73
2021/05/31 05:17:59;;;;;;;8.68;6.20;;;13.10;99.90;;;;;;4346809;32;20073;-71
2021/05/31 05:20:27;;;;;;;10.32;5.80;;;13.10;99.90;;;;;;4345504;32;20162;-71
2021/05/31 05:22:54;;;;;;;8.75;5.62;;;13.20;99.90;;;;;;4335232;32;20153;-72
2021/05/31 05:25:21;;;;;;;8.40;5.45;;;13.30;99.90;;;;;;4360479;32;20438;-71
2021/05/31 05:27:49;;;;;;;9.98;5.50;;;13.20;99.90;;;;;;4330582;32;20223;-72
2021/05/31 05:30:18;;;;;;;7.57;4.15;;;13.20;99.90;;;;;;4348317;32;20090;-72
2021/05/31 05:32:49;;;;;;;7.18;5.07;;;13.20;99.90;;;;;;4335849;32;20093;-71
2021/05/31 05:43:27;;;;;;;10.23;5.68;;;13.30;99.90;;;;;;4330069;32;20142;-70
2021/05/31 05:48:21;;;;;;;9.18;5.68;;;13.40;99.90;;;;;;4346202;32;20066;-66
2021/05/31 05:50:47;;;;;;;7.97;5.18;;;13.30;99.90;;;;;;4331215;32;20078;-66
2021/05/31 05:53:14;;;;;;;11.40;5.95;;;13.30;99.90;;;;;;4346710;32;20077;-64
2021/05/31 05:55:40;;;;;;;14.07;6.40;;;13.50;99.90;;;;;;4332998;32;20098;-62
2021/05/31 05:58:06;;;;;;;11.55;6.55;;;13.50;99.90;;;;;;4336253;33;20207;-65
2021/05/31 06:00:33;;;;;;;14.95;6.62;;;13.40;99.90;;;;;;4324128;33;20138;-66
2021/05/31 06:02:59;;;;;;;13.10;6.30;;;13.50;99.90;;;;;;4332367;33;20149;-64
2021/05/31 06:05:25;;;;;;;11.65;6.45;;;13.50;99.90;;;;;;4345156;32;20163;-63
2021/05/31 06:07:51;;;;;;;8.07;5.47;;;13.60;99.90;;;;;;4330021;33;20070;-62
2021/05/31 06:10:18;;;;;;;12.23;5.95;;;13.80;99.90;;;;;;4334782;33;20112;-62
2021/05/31 06:12:44;;;;;;;9.60;5.57;;;13.70;99.90;;;;;;4318565;33;20075;-61
2021/05/31 06:15:12;;;;;;;8.65;5.60;;;13.60;99.90;;;;;;4315720;33;20066;-64
2021/05/31 06:17:38;;;;;;;11.88;6.60;;;13.90;99.90;;;;;;4349319;32;20111;-66
2021/05/31 06:20:06;;;;;;;10.93;6.90;;;13.70;99.90;;;;;;4331722;33;20090;-64
2021/05/31 06:22:39;;;;;;;9.40;5.53;;;13.60;99.90;;;;;;4319413;33;20148;-64
2021/05/31 06:25:09;;;;;;;12.65;7.60;;;13.80;99.90;;;;;;4350621;32;20069;-63
2021/05/31 06:27:36;;;;;;;11.65;6.80;;;13.50;99.90;;;;;;4343973;32;20089;-63
2021/05/31 06:30:07;;;;;;;11.25;7.12;;;13.60;99.90;;;;;;4333096;33;20176;-63
2021/05/31 06:32:33;;;;;;;14.07;7.60;;;13.60;99.90;;;;;;4321990;33;20083;-63
2021/05/31 06:35:00;;;;;;;12.30;6.55;;;13.70;99.90;;;;;;4307156;33;20094;-62
2021/05/31 06:37:27;;;;;;;12.90;7.15;;;13.70;99.90;;;;;;4319560;33;20078;-62
2021/05/31 06:39:54;;;;;;;12.88;6.78;;;13.50;99.90;;;;;;4331184;33;20071;-64
2021/05/31 06:42:20;;;;;;;11.80;7.10;;;13.60;99.90;;;;;;4315619;33;20055;-64
2021/05/31 06:44:47;;;;;;;11.75;7.00;;;13.70;99.90;;;;;;4328964;33;20075;-63
2021/05/31 06:47:13;;;;;;;10.82;6.60;;;13.60;99.90;;;;;;4316602;33;20081;-62
2021/05/31 06:49:40;;;;;;;13.27;6.75;;;13.60;99.90;;;;;;4341467;33;20082;-63
2021/05/31 06:52:06;;;;;;;11.57;7.43;;;13.50;99.90;;;;;;4330579;33;20189;-64
2021/05/31 06:54:33;;;;;;;13.68;6.90;;;13.60;99.90;;;;;;4306637;33;20083;-64
2021/05/31 06:57:00;;;;;;;12.30;7.30;;;13.60;99.90;;;;;;4323332;33;20087;-68
2021/05/31 06:59:26;;;;;;;14.63;7.30;;;13.40;99.90;;;;;;4341124;32;20102;-64
2021/05/31 07:01:52;;;;;;;13.57;7.30;;;13.60;99.90;;;;;;4331082;32;20142;-66
2021/05/31 07:04:18;;;;;;;13.68;7.25;;;13.80;99.90;;;;;;4343466;33;20078;-64
2021/05/31 07:06:46;;;;;;;13.07;7.65;;;13.80;99.90;;;;;;4330651;33;20090;-67
2021/05/31 07:09:12;;;;;;;13.02;7.82;;;13.80;99.90;;;;;;4331552;33;20513;-70
2021/05/31 07:11:42;;;;;;;10.98;7.10;;;13.90;99.90;;;;;;4324661;32;20173;-66
2021/05/31 07:14:12;;;;;;;10.90;6.25;;;14.20;99.90;;;;;;4353363;32;20646;-66
2021/05/31 07:16:40;;;;;;;12.48;7.12;;;14.50;99.90;;;;;;4321201;33;20097;-70
2021/05/31 07:19:06;;;;;;;10.13;7.07;;;14.40;99.90;;;;;;4330968;32;20167;-65
2021/05/31 07:21:33;;;;;;;9.93;6.82;;;14.20;99.90;;;;;;4324807;33;20078;-66
2021/05/31 07:23:59;;;;;;;11.12;6.95;;;14.00;99.90;;;;;;4332300;33;20071;-66
2021/05/31 07:26:25;;;;;;;10.68;6.93;;;14.20;99.90;;;;;;4311268;33;20538;-64
2021/05/31 07:28:51;;;;;;;12.13;6.93;;;14.20;99.90;;;;;;4329469;33;20521;-63
2021/05/31 07:31:18;;;;;;;11.43;7.28;;;13.90;99.90;;;;;;4339718;33;20067;-63
2021/05/31 07:33:44;;;;;;;11.10;7.05;;;14.00;99.90;;;;;;4331292;33;20245;-65
2021/05/31 07:36:11;;;;;;;8.82;6.90;;;14.10;99.90;;;;;;4326717;33;20117;-65
2021/05/31 07:38:38;;;;;;;11.98;6.47;;;14.10;99.90;;;;;;4349647;32;20522;-63
2021/05/31 07:41:05;;;;;;;10.95;6.93;;;14.40;99.90;;;;;;4331381;33;20175;-62
2021/05/31 07:43:31;;;;;;;9.43;5.70;;;14.20;99.90;;;;;;4329386;33;20158;-62
2021/05/31 07:45:57;;;;;;;11.85;6.25;;;14.70;99.90;;;;;;4320411;33;20521;-62
2021/05/31 07:48:24;;;;;;;10.30;6.12;;;14.60;99.90;;;;;;4325539;33;20475;-63
2021/05/31 07:50:52;;;;;;;8.30;6.45;;;14.60;99.90;;;;;;4327756;33;20064;-63
2021/05/31 07:53:21;;;;;;;9.75;5.97;;;14.40;99.90;;;;;;4319476;33;20156;-65
2021/05/31 07:55:47;;;;;;;9.35;6.68;;;14.40;99.90;;;;;;4341875;33;20091;-65
2021/05/31 07:58:14;;;;;;;8.82;6.05;;;14.50;99.90;;;;;;4321299;33;20095;-64
2021/05/31 08:00:40;;;;;;;9.95;6.70;;;14.60;99.90;;;;;;4327067;33;20082;-66
2021/05/31 08:03:06;;;;;;;10.50;6.97;;;14.50;99.90;;;;;;4342492;33;20143;-64
2021/05/31 08:05:33;;;;;;;9.68;6.20;;;14.70;99.90;;;;;;4330669;32;20103;-71
2021/05/31 08:07:59;;;;;;;12.60;7.00;;;14.50;99.90;;;;;;4326414;33;20102;-66
2021/05/31 08:10:26;;;;;;;9.32;6.05;;;14.40;99.90;;;;;;4341851;33;20059;-68
2021/05/31 08:12:52;;;;;;;10.48;6.47;;;14.70;99.90;;;;;;4321629;33;20094;-66
2021/05/31 08:15:18;;;;;;;10.43;6.37;;;14.60;99.90;;;;;;4321688;33;20164;-67
2021/05/31 08:17:44;;;;;;;9.40;6.35;;;14.70;99.90;;;;;;4340713;33;20186;-65
2021/05/31 08:20:11;;;;;;;9.13;5.85;;;14.90;99.90;;;;;;4330020;33;20087;-63
2021/05/31 08:22:39;;;;;;;11.25;6.30;;;14.80;99.90;;;;;;4327192;33;20446;-62
2021/05/31 08:25:06;;;;;;;9.52;6.75;;;14.80;99.90;;;;;;4317359;32;20059;-63
2021/05/31 08:27:32;;;;;;;11.00;6.60;;;14.80;99.90;;;;;;4340760;33;20067;-64
2021/05/31 08:29:58;;;;;;;9.65;6.15;;;15.00;99.90;;;;;;4316764;33;20064;-65
2021/05/31 08:32:25;;;;;;;9.95;6.70;;;14.70;99.90;;;;;;4334093;33;20071;-63
2021/05/31 08:34:51;;;;;;;8.50;6.70;;;14.80;99.90;;;;;;4320006;33;20115;-64
2021/05/31 08:37:17;;;;;;;11.45;7.07;;;14.90;99.90;;;;;;4330693;32;20099;-63
2021/05/31 08:39:46;;;;;;;9.40;6.82;;;15.00;99.90;;;;;;4326576;33;20218;-63
2021/05/31 08:42:12;;;;;;;11.30;6.87;;;14.90;99.90;;;;;;4323792;33;20091;-65
2021/05/31 08:44:38;;;;;;;8.48;5.85;;;15.00;99.90;;;;;;4342255;33;20059;-64
2021/05/31 08:47:04;;;;;;;8.35;6.53;;;15.00;99.90;;;;;;4326690;33;20636;-63
2021/05/31 08:49:31;;;;;;;11.85;6.30;;;15.10;99.90;;;;;;4351003;33;20490;-67
2021/05/31 08:51:57;;;;;;;8.95;6.18;;;15.50;99.90;;;;;;4323797;33;20104;-64
2021/05/31 08:54:24;;;;;;;9.23;6.47;;;15.40;99.90;;;;;;4326626;33;20147;-65
2021/05/31 08:56:50;;;;;;;8.27;6.43;;;15.30;99.90;;;;;;4341547;32;20074;-64
2021/05/31 08:59:16;;;;;;;8.95;6.18;;;15.40;99.90;;;;;;4349117;32;20154;-67
2021/05/31 09:01:43;;;;;;;8.85;6.00;;;15.60;99.90;;;;;;4341873;32;20085;-70
2021/05/31 09:04:13;;;;;;;10.77;6.72;;;15.40;99.90;;;;;;4324063;32;20156;-66
2021/05/31 09:06:41;;;;;;;14.68;5.95;;;15.40;99.90;;;;;;4359491;32;20607;-66
2021/05/31 09:09:07;;;;;;;6.75;5.22;;;15.40;99.90;;;;;;4331629;32;20141;-64
2021/05/31 09:11:34;;;;;;;8.57;5.95;;;15.70;99.90;;;;;;4352390;32;20574;-62
2021/05/31 09:14:01;;;;;;;8.05;5.70;;;15.50;99.90;;;;;;4358713;32;20499;-64
2021/05/31 09:16:29;;;;;;;9.85;5.72;;;15.80;99.90;;;;;;4334006;32;20159;-62
2021/05/31 09:19:03;;;;;;;8.05;5.28;;;15.70;99.90;;;;;;4337869;32;20121;-63
2021/05/31 09:21:34;;;;;;;10.45;5.97;;;16.10;99.90;;;;;;4319910;32;20070;-62
2021/05/31 09:24:09;;;;;;;7.18;5.37;;;15.90;99.90;;;;;;4342366;32;20085;-61
2021/05/31 09:27:06;;;;;;;11.35;5.43;;;16.00;99.90;;;;;;4351449;32;20073;-65
2021/05/31 09:29:33;;;;;;;11.20;4.90;;;15.60;99.90;;;;;;4340267;32;20091;-62
2021/05/31 09:32:07;;;;;;;7.82;5.05;;;15.90;99.90;;;;;;4348989;32;20602;-62
2021/05/31 09:34:33;;;;;;;10.35;5.30;;;16.10;99.90;;;;;;4337803;32;20146;-62
2021/05/31 09:37:01;;;;;;;7.82;4.80;;;15.70;99.90;;;;;;4335274;32;20074;-66
2021/05/31 09:39:41;;;;;;;9.52;4.93;;;16.00;99.90;;;;;;4332544;32;20118;-61
2021/05/31 09:42:12;;;;;;;7.85;4.85;;;16.20;99.90;;;;;;4345950;32;20198;-61
2021/05/31 09:44:39;;;;;;;9.15;5.05;;;15.70;99.90;;;;;;4355189;32;20724;-64
2021/05/31 09:47:05;;;;;;;7.07;4.82;;;16.00;99.90;;;;;;4330819;32;20089;-63
2021/05/31 09:49:31;;;;;;;6.78;5.05;;;16.10;99.90;;;;;;4332430;32;20105;-62
2021/05/31 09:52:01;;;;;;;8.88;5.50;;;16.00;99.90;;;;;;4341167;32;20082;-61
2021/05/31 09:54:37;;;;;;;8.93;5.20;;;15.70;99.90;;;;;;4335139;32;20142;-64
2021/05/31 09:57:27;;;;;;;7.37;5.20;;;16.00;99.90;;;;;;4346714;32;20594;-75
2021/05/31 10:00:10;;;;;;;9.20;4.75;;;16.40;99.90;;;;;;4333097;32;20105;-66
2021/05/31 10:07:46;;;;;;;7.87;4.97;;;16.10;99.90;;;;;;4354028;32;20068;-66
2021/05/31 10:10:13;;;;;;;6.65;4.15;;;16.30;99.90;;;;;;4348719;32;20202;-64
2021/05/31 10:12:39;;;;;;;6.72;5.12;;;16.50;99.90;;;;;;4351913;32;20120;-72
2021/05/31 10:15:07;;;;;;;8.98;4.62;;;16.00;99.90;;;;;;4352779;32;20525;-64
2021/05/31 10:17:34;;;;;;;8.98;4.85;;;16.30;99.90;;;;;;4329350;32;20998;-64
2021/05/31 10:20:02;;;;;;;6.35;4.80;;;16.40;99.90;;;;;;4338271;32;20097;-64
2021/05/31 10:22:33;;;;;;;7.72;4.40;;;16.40;99.90;;;;;;4362476;32;20712;-65
2021/05/31 10:25:00;;;;;;;13.68;4.90;;;16.50;99.90;;;;;;4349539;32;20169;-63
2021/05/31 10:27:29;;;;;;;9.35;5.35;;;16.40;99.90;;;;;;4333906;32;20067;-63
2021/05/31 10:29:57;;;;;;;7.20;5.10;;;16.10;99.90;;;;;;4343508;32;20062;-63
2021/05/31 10:32:23;;;;;;;5.65;4.25;;;16.70;99.90;;;;;;4343782;32;20078;-62
2021/05/31 10:34:52;;;;;;;6.12;4.72;;;17.00;99.90;;;;;;4350703;32;20098;-66
2021/05/31 10:37:23;;;;;;;7.65;4.50;;;16.80;99.90;;;;;;4343948;32;20081;-63
2021/05/31 10:40:02;;;;;;;8.82;5.07;;;17.10;99.90;;;;;;4356726;32;20110;-64
2021/05/31 10:42:49;;;;;;;7.35;4.97;;;16.70;99.90;;;;;;4361428;32;20066;-63
2021/05/31 10:45:20;;;;;;;;;;;16.80;99.90;;;;;;4321169;32;20631;-62
2021/05/31 10:48:15;;;;;;;7.32;4.20;;;17.10;99.90;;;;;;4336015;32;20391;-66
2021/05/31 10:51:04;;;;;;;9.27;4.53;;;17.30;99.90;;;;;;4353763;32;20476;-63
2021/05/31 10:53:31;;;;;;;7.53;4.85;;;16.70;99.90;;;;;;4334695;32;20105;-64
2021/05/31 10:55:59;;;;;;;6.15;3.92;;;17.10;99.90;;;;;;4336681;32;20148;-62
2021/05/31 10:58:31;;;;;;;7.55;4.90;;;17.40;99.90;;;;;;4363731;32;20086;-64
2021/05/31 11:01:13;;;;;;;7.82;4.28;;;16.80;99.90;;;;;;4343989;32;20072;-67
2021/05/31 11:04:01;;;;;;;7.95;4.68;;;17.30;99.90;;;;;;4340953;32;20118;-67
2021/05/31 11:06:30;;;;;;;5.93;4.40;;;17.50;99.90;;;;;;4337201;32;20182;-63
2021/05/31 11:09:08;;;;;;;6.45;4.22;;;17.30;99.90;;;;;;4331380;32;20175;-63
2021/05/31 11:11:49;;;;;;;5.15;4.30;;;17.30;99.90;;;;;;4367294;32;20162;-63
2021/05/31 11:14:17;;;;;;;7.82;4.35;;;17.20;99.90;;;;;;4340434;32;20181;-64
2021/05/31 11:17:01;;;;;;;9.27;4.30;;;17.10;99.90;;;;;;4343402;32;20073;-63
2021/05/31 11:19:35;;;;;;;7.28;4.32;;;17.30;99.90;;;;;;4337679;32;20597;-61
2021/05/31 11:22:19;;;;;;;7.37;4.20;;;17.00;99.90;;;;;;4339756;32;20062;-63
2021/05/31 11:25:05;;;;;;;5.30;3.65;;;17.10;99.90;;;;;;4338875;32;20189;-64
2021/05/31 11:27:34;;;;;;;7.15;4.00;;;17.50;99.90;;;;;;4343563;32;20514;-63
2021/05/31 11:30:11;;;;;;;8.00;4.60;;;17.30;99.90;;;;;;4345091;32;20074;-63
2021/05/31 11:32:38;;;;;;;8.95;4.55;;;16.80;99.90;;;;;;4362992;32;20077;-65
2021/05/31 11:35:06;;;;;;;5.80;4.20;;;17.10;99.90;;;;;;4360483;32;20425;-65
2021/05/31 11:37:33;;;;;;;6.28;4.22;;;17.00;99.90;;;;;;4350383;32;20055;-62
2021/05/31 11:40:01;;;;;;;5.40;4.18;;;17.30;99.90;;;;;;4357574;32;20153;-64
2021/05/31 11:42:27;;;;;;;4.90;3.90;;;17.30;99.90;;;;;;4346604;32;20512;-63
2021/05/31 11:45:01;;;;;;;6.70;3.83;;;17.30;99.90;;;;;;4344238;32;20080;-66
2021/05/31 11:47:29;;;;;;;6.07;3.90;;;17.90;99.90;;;;;;4357859;32;20160;-72
2021/05/31 11:49:56;;;;;;;10.35;4.10;;;17.80;99.90;;;;;;4352393;32;20070;-64
2021/05/31 11:52:26;;;;;;;7.18;4.07;;;17.60;99.90;;;;;;4336282;32;20171;-63
2021/05/31 11:54:52;;;;;;;5.55;3.62;;;17.20;99.90;;;;;;4368217;32;20070;-63
2021/05/31 11:57:21;;;;;;;7.68;4.57;;;17.50;99.90;;;;;;4379671;32;20070;-66
2021/05/31 11:59:52;;;;;;;6.62;4.50;;;17.50;99.90;;;;;;4354694;32;20074;-63
2021/05/31 12:02:20;;;;;;;7.37;4.40;;;17.40;99.90;;;;;;4336224;32;20088;-64
2021/05/31 12:04:48;;;;;;;5.82;3.75;;;17.20;99.90;;;;;;4323010;32;20070;-62
2021/05/31 12:07:20;;;;;;;6.75;3.72;;;17.60;99.90;;;;;;4338613;32;20102;-63
2021/05/31 12:09:46;;;;;;;4.80;3.67;;;17.40;99.90;;;;;;4334697;32;20231;-62
2021/05/31 12:12:14;;;;;;;4.60;3.62;;;17.60;99.90;;;;;;4344886;32;20122;-64
2021/05/31 12:14:56;;;;;;;5.25;3.70;;;17.50;99.90;;;;;;4323542;32;20167;-65
2021/05/31 12:17:25;;;;;;;6.80;4.10;;;17.80;99.90;;;;;;4343038;32;20078;-64
2021/05/31 12:19:51;;;;;;;4.93;3.60;;;17.40;99.90;;;;;;4342178;32;20137;-63
2021/05/31 12:22:19;;;;;;;5.05;3.58;;;17.80;99.90;;;;;;4347829;32;20070;-63
2021/05/31 12:24:47;;;;;;;4.90;3.70;;;17.70;99.90;;;;;;4339332;32;20105;-63
2021/05/31 12:27:14;;;;;;;7.20;4.00;;;17.60;99.90;;;;;;4349627;32;20175;-63
2021/05/31 12:29:41;;;;;;;6.30;3.42;;;17.40;99.90;;;;;;4332824;32;20186;-64
2021/05/31 12:32:13;;;;;;;6.03;3.50;;;17.40;99.90;;;;;;4369348;32;20069;-63
2021/05/31 12:34:40;;;;;;;5.12;3.47;;;17.70;99.90;;;;;;4363080;32;20067;-63
2021/05/31 12:37:11;;;;;;;6.03;3.55;;;17.80;99.90;;;;;;4359158;32;20149;-63
2021/05/31 12:39:50;;;;;;;7.18;3.65;;;17.80;99.90;;;;;;4353330;32;20078;-63
2021/05/31 12:42:27;;;;;;;8.10;3.83;;;18.00;99.90;;;;;;4347411;32;20124;-64
2021/05/31 12:45:20;;;;;;;7.35;4.43;;;17.80;99.90;;;;;;4340634;32;20186;-63
2021/05/31 12:47:49;;;;;;;5.43;3.58;;;18.10;99.90;;;;;;4336878;32;20635;-63
2021/05/31 12:50:37;;;;;;;4.72;3.35;;;18.00;99.90;;;;;;4350008;32;20568;-64
2021/05/31 12:53:14;;;;;;;7.47;4.18;;;18.10;99.90;;;;;;4354835;32;20147;-63
2021/05/31 12:55:41;;;;;;;6.68;3.62;;;17.40;99.90;;;;;;4349249;32;20097;-65
2021/05/31 12:58:26;;;;;;;5.30;3.87;;;17.40;99.90;;;;;;4353509;32;20085;-63
2021/05/31 13:00:52;;;;;;;5.80;4.28;;;18.00;99.90;;;;;;4345973;32;20067;-61
2021/05/31 13:03:20;;;;;;;6.28;4.00;;;17.60;99.90;;;;;;4348832;32;20271;-64
2021/05/31 13:05:49;;;;;;;4.43;3.50;;;17.70;99.90;;;;;;4350835;32;20104;-66
2021/05/31 13:08:15;;;;;;;6.93;4.20;;;17.80;99.90;;;;;;4333980;32;20149;-65
2021/05/31 13:10:47;;;;;;;5.50;3.78;;;17.60;99.90;;;;;;4338520;32;20120;-66
2021/05/31 13:13:15;;;;;;;5.80;4.37;;;17.60;99.90;;;;;;4340703;32;20171;-66
2021/05/31 13:15:47;;;;;;;5.03;3.85;;;17.60;99.90;;;;;;4338535;32;20444;-64
2021/05/31 13:18:30;;;;;;;5.85;3.62;;;17.70;99.90;;;;;;4344975;32;20094;-64